Time;durP1;ratioP1;P1;durP2;ratioP2;P2;SDS_P1;SDS_P2;PMS_P1;PMS_P2;Temp;Humidity;BMP_temperature;BMP_pressure;BME280_temperature;BME280_humidity;BME280_pressure;Samples;Min_cycle;Max_cycle;Signal;HPM_P1;HPM_P2
2021/07/03 00:01:07;;;;;;;12.23;9.68;;;;;;;;;;3583213;40;20530;-63
2021/07/03 00:03:32;;;;;;;16.83;10.02;;;;;;;;;;3582149;40;20371;-64
2021/07/03 00:05:58;;;;;;;15.00;10.15;;;;;;;;;;3582558;40;20055;-64
2021/07/03 00:08:27;;;;;;;16.40;11.23;;;;;;;;;;3581562;40;20268;-63
2021/07/03 00:10:54;;;;;;;10.40;9.38;;;;;;;;;;3582746;40;20072;-63
2021/07/03 00:13:19;;;;;;;13.35;10.30;;;;;;;;;;3582850;40;20029;-63
2021/07/03 00:15:45;;;;;;;15.55;9.95;;;;;;;;;;3582702;40;20125;-63
2021/07/03 00:18:11;;;;;;;15.05;10.32;;;;;;;;;;3575342;40;20025;-64
2021/07/03 00:20:36;;;;;;;11.82;9.80;;;;;;;;;;3579757;40;20453;-64
2021/07/03 00:23:04;;;;;;;12.30;9.75;;;;;;;;;;3583638;40;20061;-64
2021/07/03 00:25:29;;;;;;;11.95;9.85;;;;;;;;;;3584323;40;20040;-63
2021/07/03 00:27:55;;;;;;;12.55;9.70;;;;;;;;;;3575932;40;20032;-63
2021/07/03 00:30:20;;;;;;;15.43;10.15;;;;;;;;;;3580484;40;20039;-63
2021/07/03 00:32:46;;;;;;;12.27;10.02;;;;;;;;;;3582158;40;20033;-63
2021/07/03 00:35:12;;;;;;;12.63;9.85;;;;;;;;;;3582641;40;20067;-63
2021/07/03 00:37:38;;;;;;;14.13;9.73;;;;;;;;;;3582241;40;20060;-63
2021/07/03 00:40:05;;;;;;;15.73;10.15;;;;;;;;;;3580115;40;20048;-63
2021/07/03 00:42:30;;;;;;;15.85;10.52;;;;;;;;;;3580690;40;20052;-63
2021/07/03 00:44:56;;;;;;;14.80;9.95;;;;;;;;;;3583314;40;20050;-63
2021/07/03 00:47:22;;;;;;;11.45;9.20;;;;;;;;;;3582564;40;20129;-64
2021/07/03 00:49:47;;;;;;;12.43;9.65;;;;;;;;;;3582565;40;20517;-63
2021/07/03 00:52:13;;;;;;;14.73;10.18;;;;;;;;;;3581181;40;20044;-63
2021/07/03 00:54:41;;;;;;;13.80;9.02;;;;;;;;;;3579571;40;20044;-63
2021/07/03 00:57:08;;;;;;;14.00;9.82;;;;;;;;;;3582413;40;20052;-63
2021/07/03 00:59:37;;;;;;;15.32;11.35;;;;;;;;;;3583150;40;20045;-66
2021/07/03 01:02:05;;;;;;;14.52;10.80;;;;;;;;;;3581917;40;20037;-64
2021/07/03 01:04:30;;;;;;;13.52;9.85;;;;;;;;;;3573061;40;20037;-64
2021/07/03 01:06:57;;;;;;;14.65;9.60;;;;;;;;;;3584301;40;20051;-63
2021/07/03 01:09:22;;;;;;;11.57;9.32;;;;;;;;;;3583235;40;20040;-63
2021/07/03 01:11:49;;;;;;;13.68;9.25;;;;;;;;;;3581724;40;20055;-63
2021/07/03 01:14:14;;;;;;;10.13;9.07;;;;;;;;;;3581939;40;20050;-63
2021/07/03 01:16:43;;;;;;;10.73;8.38;;;;;;;;;;3583325;40;20073;-63
2021/07/03 01:19:08;;;;;;;11.32;8.85;;;;;;;;;;3581817;40;20044;-63
2021/07/03 01:21:34;;;;;;;10.00;9.00;;;;;;;;;;3577581;40;20053;-63
2021/07/03 01:23:59;;;;;;;13.82;9.13;;;;;;;;;;3585419;40;20025;-64
2021/07/03 01:26:25;;;;;;;17.38;9.23;;;;;;;;;;3580363;40;20385;-63
2021/07/03 01:28:50;;;;;;;12.05;9.82;;;;;;;;;;3581949;40;20140;-63
2021/07/03 01:31:16;;;;;;;18.08;9.85;;;;;;;;;;3584423;40;20033;-63
2021/07/03 01:33:41;;;;;;;14.50;9.68;;;;;;;;;;3582276;40;20065;-63
2021/07/03 01:36:06;;;;;;;15.48;8.85;;;;;;;;;;3582781;40;20036;-63
2021/07/03 01:38:32;;;;;;;13.40;9.75;;;;;;;;;;3583119;40;20456;-63
2021/07/03 01:40:58;;;;;;;14.63;9.57;;;;;;;;;;3583322;40;20039;-64
2021/07/03 01:43:25;;;;;;;13.15;10.02;;;;;;;;;;3584091;40;20366;-63
2021/07/03 01:45:52;;;;;;;13.20;9.90;;;;;;;;;;3582295;40;20037;-63
2021/07/03 01:48:28;;;;;;;16.33;10.77;;;;;;;;;;3582209;40;20049;-64
2021/07/03 01:50:55;;;;;;;14.95;9.57;;;;;;;;;;3584557;40;20072;-64
2021/07/03 01:53:22;;;;;;;14.13;9.93;;;;;;;;;;3577228;40;20044;-64
2021/07/03 01:55:48;;;;;;;14.25;9.98;;;;;;;;;;3582993;40;20053;-64
2021/07/03 01:58:24;;;;;;;12.02;10.25;;;;;;;;;;3583567;40;20044;-64
2021/07/03 02:00:55;;;;;;;12.13;9.75;;;;;;;;;;3583003;40;20134;-63
2021/07/03 02:03:24;;;;;;;;;;;;;;;;;;3583798;40;20276;-64
2021/07/03 02:05:49;;;;;;;12.05;9.35;;;;;;;;;;3583692;40;20219;-64
2021/07/03 02:08:15;;;;;;;13.45;9.55;;;;;;;;;;3582741;40;20421;-64
2021/07/03 02:10:41;;;;;;;11.70;9.95;;;;;;;;;;3582507;40;20032;-64
2021/07/03 02:13:06;;;;;;;17.92;11.07;;;;;;;;;;3583650;40;20052;-64
2021/07/03 02:15:32;;;;;;;10.68;9.40;;;;;;;;;;3583750;40;20568;-64
2021/07/03 02:17:58;;;;;;;14.25;10.88;;;;;;;;;;3583384;40;20130;-64
2021/07/03 02:20:24;;;;;;;11.38;10.00;;;;;;;;;;3582076;40;20039;-64
2021/07/03 02:22:50;;;;;;;12.35;9.40;;;;;;;;;;3582830;40;20036;-64
2021/07/03 02:25:15;;;;;;;12.45;9.07;;;;;;;;;;3583508;40;20036;-65
2021/07/03 02:27:40;;;;;;;11.10;9.95;;;;;;;;;;3583587;40;20024;-64
2021/07/03 02:30:12;;;;;;;13.85;10.80;;;;;;;;;;3582492;40;20457;-64
2021/07/03 02:32:39;;;;;;;11.35;10.13;;;;;;;;;;3579308;40;20043;-65
2021/07/03 02:35:06;;;;;;;16.17;11.32;;;;;;;;;;3576423;40;20069;-64
2021/07/03 02:37:32;;;;;;;12.48;10.52;;;;;;;;;;3583242;40;20744;-65
2021/07/03 02:39:57;;;;;;;17.27;11.60;;;;;;;;;;3581929;40;20045;-65
2021/07/03 02:42:23;;;;;;;18.17;11.68;;;;;;;;;;3581559;40;20064;-65
2021/07/03 02:44:48;;;;;;;12.32;10.75;;;;;;;;;;3581460;40;20036;-65
2021/07/03 02:47:14;;;;;;;13.80;11.00;;;;;;;;;;3582115;40;20052;-64
2021/07/03 02:49:39;;;;;;;13.30;10.43;;;;;;;;;;3583489;40;20121;-64
2021/07/03 02:52:05;;;;;;;12.70;11.30;;;;;;;;;;3583660;40;20037;-64
2021/07/03 02:54:31;;;;;;;12.10;10.88;;;;;;;;;;3583118;40;20038;-64
2021/07/03 02:56:59;;;;;;;11.57;10.32;;;;;;;;;;3583370;40;20044;-64
2021/07/03 02:59:26;;;;;;;11.73;10.50;;;;;;;;;;3580493;40;20076;-64
2021/07/03 03:01:51;;;;;;;19.17;10.55;;;;;;;;;;3572704;40;20249;-64
2021/07/03 03:04:18;;;;;;;12.73;10.40;;;;;;;;;;3581575;40;20040;-65
2021/07/03 03:06:43;;;;;;;14.65;10.65;;;;;;;;;;3576739;40;20032;-64
2021/07/03 03:09:09;;;;;;;12.20;10.52;;;;;;;;;;3580700;40;20046;-64
2021/07/03 03:11:34;;;;;;;14.10;10.70;;;;;;;;;;3582492;40;20033;-64
2021/07/03 03:14:00;;;;;;;14.75;11.13;;;;;;;;;;3581051;40;20043;-64
2021/07/03 03:16:26;;;;;;;13.00;10.45;;;;;;;;;;3581626;40;20449;-64
2021/07/03 03:18:52;;;;;;;12.80;10.75;;;;;;;;;;3582266;40;20056;-64
2021/07/03 03:21:18;;;;;;;11.30;10.15;;;;;;;;;;3573472;40;20037;-64
2021/07/03 03:23:43;;;;;;;16.00;11.52;;;;;;;;;;3575943;40;20040;-64
2021/07/03 03:26:09;;;;;;;14.40;10.80;;;;;;;;;;3579850;40;20888;-64
2021/07/03 03:28:34;;;;;;;14.73;11.48;;;;;;;;;;3582302;40;20024;-64
2021/07/03 03:31:00;;;;;;;17.83;11.88;;;;;;;;;;3583477;40;20032;-64
2021/07/03 03:33:25;;;;;;;13.93;11.57;;;;;;;;;;3583891;40;20044;-64
2021/07/03 03:35:51;;;;;;;14.73;11.25;;;;;;;;;;3583495;40;20033;-64
2021/07/03 03:38:16;;;;;;;14.02;9.90;;;;;;;;;;3583010;40;20069;-64
2021/07/03 03:40:42;;;;;;;17.67;10.63;;;;;;;;;;3582214;40;20573;-64
2021/07/03 03:43:09;;;;;;;13.93;10.70;;;;;;;;;;3582724;40;20363;-64
2021/07/03 03:45:35;;;;;;;17.90;10.60;;;;;;;;;;3580972;40;20519;-64
2021/07/03 03:48:00;;;;;;;12.90;10.35;;;;;;;;;;3580115;40;20044;-64
2021/07/03 03:50:26;;;;;;;13.73;10.63;;;;;;;;;;3582782;40;20037;-64
2021/07/03 03:52:51;;;;;;;13.98;10.27;;;;;;;;;;3577112;40;20040;-64
2021/07/03 03:55:17;;;;;;;13.13;10.60;;;;;;;;;;3582368;40;20057;-64
2021/07/03 03:57:42;;;;;;;12.43;11.13;;;;;;;;;;3580176;40;20045;-64
2021/07/03 04:00:09;;;;;;;24.83;11.30;;;;;;;;;;3581511;40;20049;-64
2021/07/03 04:02:34;;;;;;;16.38;10.40;;;;;;;;;;3582885;40;20068;-62
2021/07/03 04:05:00;;;;;;;13.13;10.75;;;;;;;;;;3581152;40;20067;-64
2021/07/03 04:07:25;;;;;;;14.48;10.50;;;;;;;;;;3583153;40;20049;-62
2021/07/03 04:09:51;;;;;;;12.25;10.20;;;;;;;;;;3580221;40;20296;-64
2021/07/03 04:12:17;;;;;;;12.80;11.27;;;;;;;;;;3582878;40;20028;-64
2021/07/03 04:14:42;;;;;;;13.30;11.57;;;;;;;;;;3575692;40;20090;-64
2021/07/03 04:17:08;;;;;;;14.20;10.95;;;;;;;;;;3581586;40;20072;-62
2021/07/03 04:19:34;;;;;;;13.13;11.48;;;;;;;;;;3574072;40;20085;-62
2021/07/03 04:22:00;;;;;;;13.75;11.10;;;;;;;;;;3582709;40;20122;-62
2021/07/03 04:24:25;;;;;;;13.32;10.75;;;;;;;;;;3582120;40;20045;-64
2021/07/03 04:26:51;;;;;;;12.18;10.88;;;;;;;;;;3580008;40;20154;-64
2021/07/03 04:29:18;;;;;;;13.38;11.18;;;;;;;;;;3581825;40;20029;-62
2021/07/03 04:31:44;;;;;;;14.60;11.35;;;;;;;;;;3579504;40;20029;-63
2021/07/03 04:34:09;;;;;;;14.75;12.18;;;;;;;;;;3583204;40;20041;-63
2021/07/03 04:36:35;;;;;;;20.45;11.63;;;;;;;;;;3584297;40;20055;-63
2021/07/03 04:39:00;;;;;;;19.00;12.35;;;;;;;;;;3585138;40;20040;-62
2021/07/03 04:41:26;;;;;;;18.67;11.60;;;;;;;;;;3581256;40;20048;-62
2021/07/03 04:43:51;;;;;;;14.68;11.20;;;;;;;;;;3584592;40;20043;-63
2021/07/03 04:46:17;;;;;;;14.95;11.30;;;;;;;;;;3583759;40;20044;-63
2021/07/03 04:48:42;;;;;;;13.13;11.60;;;;;;;;;;3582576;40;20128;-63
2021/07/03 04:51:08;;;;;;;14.18;12.43;;;;;;;;;;3576809;40;20083;-63
2021/07/03 04:53:34;;;;;;;13.73;11.65;;;;;;;;;;3581569;40;20044;-63
2021/07/03 04:55:59;;;;;;;14.90;12.45;;;;;;;;;;3583860;40;20036;-63
2021/07/03 04:58:24;;;;;;;13.30;11.98;;;;;;;;;;3583922;40;20043;-63
2021/07/03 05:00:50;;;;;;;21.65;12.50;;;;;;;;;;3583470;40;20044;-62
2021/07/03 05:03:15;;;;;;;13.57;11.60;;;;;;;;;;3585210;40;20041;-62
2021/07/03 05:05:41;;;;;;;14.20;12.23;;;;;;;;;;3582064;40;20036;-62
2021/07/03 05:08:06;;;;;;;15.02;11.50;;;;;;;;;;3584168;40;20741;-63
2021/07/03 05:10:32;;;;;;;13.48;12.05;;;;;;;;;;3583285;40;20032;-63
2021/07/03 05:12:57;;;;;;;15.82;12.45;;;;;;;;;;3585427;40;20051;-63
2021/07/03 05:15:23;;;;;;;14.25;11.80;;;;;;;;;;3584427;40;20048;-63
2021/07/03 05:17:48;;;;;;;15.50;12.23;;;;;;;;;;3584212;40;20035;-61
2021/07/03 05:20:16;;;;;;;14.82;12.32;;;;;;;;;;3583016;40;20037;-62
2021/07/03 05:22:41;;;;;;;14.88;11.63;;;;;;;;;;3583208;40;20033;-62
2021/07/03 05:25:08;;;;;;;13.13;11.70;;;;;;;;;;3582350;40;20118;-62
2021/07/03 05:27:33;;;;;;;14.45;11.55;;;;;;;;;;3572784;40;20033;-62
2021/07/03 05:29:59;;;;;;;14.90;12.50;;;;;;;;;;3585215;40;20043;-62
2021/07/03 05:32:24;;;;;;;13.77;11.30;;;;;;;;;;3585103;40;20396;-63
2021/07/03 05:34:50;;;;;;;13.57;11.07;;;;;;;;;;3582563;40;20064;-62
2021/07/03 05:37:15;;;;;;;16.88;11.48;;;;;;;;;;3577879;40;20045;-62
2021/07/03 05:39:41;;;;;;;18.75;11.23;;;;;;;;;;3583468;40;20195;-62
2021/07/03 05:42:06;;;;;;;13.57;11.45;;;;;;;;;;3584395;40;20053;-62
2021/07/03 05:44:32;;;;;;;23.20;10.88;;;;;;;;;;3584328;40;20480;-63
2021/07/03 05:46:57;;;;;;;14.75;12.18;;;;;;;;;;3580285;40;20025;-63
2021/07/03 05:49:23;;;;;;;14.18;11.38;;;;;;;;;;3581214;40;20060;-63
2021/07/03 05:51:48;;;;;;;11.98;10.75;;;;;;;;;;3573723;40;20051;-63
2021/07/03 05:54:14;;;;;;;14.27;11.38;;;;;;;;;;3583153;40;20359;-63
2021/07/03 05:56:40;;;;;;;16.75;11.38;;;;;;;;;;3582694;40;20085;-63
2021/07/03 05:59:06;;;;;;;20.80;11.48;;;;;;;;;;3573501;40;20052;-62
2021/07/03 06:01:31;;;;;;;15.20;11.63;;;;;;;;;;3580685;40;20036;-62
2021/07/03 06:03:57;;;;;;;13.35;11.32;;;;;;;;;;3576830;40;20032;-63
2021/07/03 06:06:22;;;;;;;17.52;12.90;;;;;;;;;;3584017;40;20375;-63
2021/07/03 06:08:48;;;;;;;15.20;12.38;;;;;;;;;;3581893;40;20036;-62
2021/07/03 06:11:15;;;;;;;13.35;11.95;;;;;;;;;;3581826;40;20126;-62
2021/07/03 06:13:41;;;;;;;12.85;10.88;;;;;;;;;;3580395;40;20349;-63
2021/07/03 06:16:07;;;;;;;13.38;11.98;;;;;;;;;;3583096;40;20118;-63
2021/07/03 06:18:32;;;;;;;16.23;12.77;;;;;;;;;;3583050;40;20033;-63
2021/07/03 06:20:58;;;;;;;13.88;12.38;;;;;;;;;;3581893;40;20094;-63
2021/07/03 06:23:25;;;;;;;14.27;12.32;;;;;;;;;;3574267;40;20537;-62
2021/07/03 06:25:51;;;;;;;17.40;13.40;;;;;;;;;;3574079;40;20033;-63
2021/07/03 06:28:16;;;;;;;16.70;12.40;;;;;;;;;;3582858;40;20439;-63
2021/07/03 06:30:42;;;;;;;15.95;11.77;;;;;;;;;;3581866;40;20124;-62
2021/07/03 06:33:08;;;;;;;20.55;13.43;;;;;;;;;;3581559;40;20862;-63
2021/07/03 06:35:33;;;;;;;14.32;12.13;;;;;;;;;;3582937;40;20323;-63
2021/07/03 06:37:59;;;;;;;14.23;12.77;;;;;;;;;;3582978;40;20037;-63
2021/07/03 06:40:24;;;;;;;14.63;12.98;;;;;;;;;;3582019;40;20033;-63
2021/07/03 06:42:50;;;;;;;15.20;12.13;;;;;;;;;;3582853;40;20037;-62
2021/07/03 06:45:17;;;;;;;16.98;12.75;;;;;;;;;;3583193;40;20047;-62
2021/07/03 06:47:42;;;;;;;14.55;12.27;;;;;;;;;;3583905;40;20055;-62
2021/07/03 06:50:08;;;;;;;13.50;12.10;;;;;;;;;;3582439;40;20040;-62
2021/07/03 06:52:34;;;;;;;17.13;11.65;;;;;;;;;;3581022;40;20041;-62
2021/07/03 06:55:00;;;;;;;19.13;11.93;;;;;;;;;;3581092;40;20094;-62
2021/07/03 06:57:25;;;;;;;15.77;11.35;;;;;;;;;;3581210;40;20352;-60
2021/07/03 06:59:51;;;;;;;17.17;12.02;;;;;;;;;;3576876;40;20384;-61
2021/07/03 07:02:18;;;;;;;16.27;12.48;;;;;;;;;;3583071;40;20086;-61
2021/07/03 07:04:44;;;;;;;13.70;12.30;;;;;;;;;;3580352;40;20096;-61
2021/07/03 07:07:09;;;;;;;14.55;12.75;;;;;;;;;;3573957;40;20518;-61
2021/07/03 07:09:35;;;;;;;13.93;12.15;;;;;;;;;;3582868;40;20146;-61
2021/07/03 07:12:00;;;;;;;15.30;12.48;;;;;;;;;;3572731;40;20044;-61
2021/07/03 07:14:26;;;;;;;15.43;12.15;;;;;;;;;;3580215;40;20089;-61
2021/07/03 07:16:52;;;;;;;13.48;10.85;;;;;;;;;;3581046;40;20060;-61
2021/07/03 07:19:18;;;;;;;11.43;10.23;;;;;;;;;;3583004;40;20041;-60
2021/07/03 07:21:43;;;;;;;13.00;11.38;;;;;;;;;;3583240;40;20066;-60
2021/07/03 07:24:09;;;;;;;12.85;10.73;;;;;;;;;;3583092;40;20052;-60
2021/07/03 07:26:34;;;;;;;12.07;10.70;;;;;;;;;;3582638;40;20036;-60
2021/07/03 07:29:00;;;;;;;18.13;11.30;;;;;;;;;;3583026;40;20037;-60
2021/07/03 07:31:26;;;;;;;15.05;10.32;;;;;;;;;;3582646;40;20029;-60
2021/07/03 07:33:51;;;;;;;14.55;11.05;;;;;;;;;;3582519;40;20045;-61
2021/07/03 07:36:17;;;;;;;10.93;9.82;;;;;;;;;;3576240;40;20224;-61
2021/07/03 07:38:43;;;;;;;11.35;10.10;;;;;;;;;;3581689;40;20040;-60
2021/07/03 07:41:08;;;;;;;12.48;10.88;;;;;;;;;;3584228;40;20037;-61
2021/07/03 07:43:34;;;;;;;11.85;10.23;;;;;;;;;;3582771;40;20363;-60
2021/07/03 07:46:00;;;;;;;11.90;10.55;;;;;;;;;;3582974;40;20126;-60
2021/07/03 07:48:28;;;;;;;13.95;10.73;;;;;;;;;;3572323;40;20141;-61
2021/07/03 07:50:57;;;;;;;16.52;10.77;;;;;;;;;;3581884;40;20048;-60
2021/07/03 07:53:23;;;;;;;13.93;10.38;;;;;;;;;;3582170;40;20049;-61
2021/07/03 07:55:49;;;;;;;14.82;10.25;;;;;;;;;;3582253;40;20049;-61
2021/07/03 07:58:15;;;;;;;12.27;9.52;;;;;;;;;;3579834;40;20060;-61
2021/07/03 08:00:40;;;;;;;11.77;10.55;;;;;;;;;;3581619;40;20037;-61
2021/07/03 08:03:07;;;;;;;11.10;9.30;;;;;;;;;;3582724;40;20040;-61
2021/07/03 08:05:33;;;;;;;12.40;10.07;;;;;;;;;;3574364;40;20142;-61
2021/07/03 08:07:58;;;;;;;11.02;9.93;;;;;;;;;;3585077;40;20028;-61
2021/07/03 08:10:27;;;;;;;11.57;9.57;;;;;;;;;;3583227;40;20394;-61
2021/07/03 08:12:53;;;;;;;10.32;9.30;;;;;;;;;;3584636;40;20044;-61
2021/07/03 08:15:19;;;;;;;11.18;9.98;;;;;;;;;;3584396;40;20032;-61
2021/07/03 08:17:45;;;;;;;10.68;9.50;;;;;;;;;;3584178;40;20045;-61
2021/07/03 08:20:19;;;;;;;20.05;11.05;;;;;;;;;;3582444;40;20032;-61
2021/07/03 08:22:46;;;;;;;10.60;9.02;;;;;;;;;;3584231;40;20134;-60
2021/07/03 08:25:13;;;;;;;13.73;9.73;;;;;;;;;;3581883;40;20036;-61
2021/07/03 08:27:39;;;;;;;10.45;8.77;;;;;;;;;;3584674;40;20128;-61
2021/07/03 08:30:05;;;;;;;11.82;9.52;;;;;;;;;;3569106;40;20037;-61
2021/07/03 08:32:31;;;;;;;10.80;8.75;;;;;;;;;;3582959;40;20047;-61
2021/07/03 08:34:57;;;;;;;16.17;10.60;;;;;;;;;;3583806;40;20041;-62
2021/07/03 08:37:23;;;;;;;12.13;9.70;;;;;;;;;;3584994;40;20033;-63
2021/07/03 08:39:49;;;;;;;13.23;9.95;;;;;;;;;;3584632;40;20133;-62
2021/07/03 08:42:14;;;;;;;11.30;9.15;;;;;;;;;;3584401;40;20069;-62
2021/07/03 08:44:48;;;;;;;10.70;9.18;;;;;;;;;;3583479;40;20031;-62
2021/07/03 08:47:14;;;;;;;10.55;9.48;;;;;;;;;;3583313;40;20277;-62
2021/07/03 08:49:41;;;;;;;14.70;9.23;;;;;;;;;;3583298;40;20571;-62
2021/07/03 08:52:07;;;;;;;11.52;8.98;;;;;;;;;;3584122;40;20127;-62
2021/07/03 08:54:32;;;;;;;11.98;9.18;;;;;;;;;;3584790;40;20588;-62
2021/07/03 08:57:00;;;;;;;11.35;8.15;;;;;;;;;;3583845;40;20276;-62
2021/07/03 08:59:27;;;;;;;11.77;10.10;;;;;;;;;;3583094;40;20076;-62
2021/07/03 09:01:54;;;;;;;12.55;9.55;;;;;;;;;;3585214;40;20038;-62
2021/07/03 09:04:38;;;;;;;9.82;8.57;;;;;;;;;;3583175;40;20115;-62
2021/07/03 09:07:21;;;;;;;14.55;9.50;;;;;;;;;;3581529;40;20114;-62
2021/07/03 09:09:54;;;;;;;10.80;9.48;;;;;;;;;;3582926;40;20498;-62
2021/07/03 09:12:34;;;;;;;12.43;9.50;;;;;;;;;;3583784;40;20052;-62
2021/07/03 09:15:15;;;;;;;;;;;;;;;;;;3584829;40;20028;-61
2021/07/03 09:18:01;;;;;;;12.60;8.73;;;;;;;;;;3583783;40;20744;-62
2021/07/03 09:20:45;;;;;;;10.18;8.02;;;;;;;;;;3583990;40;20036;-62
2021/07/03 09:23:16;;;;;;;12.20;8.10;;;;;;;;;;3584163;40;20087;-62
2021/07/03 09:25:47;;;;;;;10.93;8.80;;;;;;;;;;3575003;40;20131;-62
2021/07/03 09:28:24;;;;;;;12.27;8.00;;;;;;;;;;3581469;40;20049;-61
2021/07/03 09:30:56;;;;;;;9.80;8.73;;;;;;;;;;3582146;40;20049;-62
2021/07/03 09:33:28;;;;;;;10.40;8.32;;;;;;;;;;3581683;40;20044;-62
2021/07/03 09:35:56;;;;;;;9.85;8.30;;;;;;;;;;3584799;40;20044;-62
2021/07/03 09:38:32;;;;;;;16.02;8.35;;;;;;;;;;3578739;40;20028;-63
2021/07/03 09:41:25;;;;;;;9.63;7.38;;;;;;;;;;3585744;40;20437;-62
2021/07/03 09:43:51;;;;;;;8.02;6.82;;;;;;;;;;3573597;40;20085;-61
2021/07/03 09:46:32;;;;;;;9.75;7.13;;;;;;;;;;3583393;40;20041;-62
2021/07/03 09:49:19;;;;;;;13.55;8.00;;;;;;;;;;3581866;40;20057;-62
2021/07/03 09:51:47;;;;;;;7.70;6.90;;;;;;;;;;3581354;40;20048;-62
2021/07/03 09:54:16;;;;;;;9.43;6.85;;;;;;;;;;3583938;40;20084;-61
2021/07/03 09:56:42;;;;;;;9.75;6.60;;;;;;;;;;3584753;40;20125;-62
2021/07/03 09:59:08;;;;;;;12.63;6.97;;;;;;;;;;3583935;40;20397;-62
2021/07/03 10:01:35;;;;;;;11.23;6.65;;;;;;;;;;3583937;40;20047;-62
2021/07/03 10:04:03;;;;;;;14.63;7.50;;;;;;;;;;3585669;40;20076;-62
2021/07/03 10:06:30;;;;;;;7.78;6.78;;;;;;;;;;3582816;40;20285;-63
2021/07/03 10:09:01;;;;;;;13.07;7.55;;;;;;;;;;3581533;40;20304;-62
2021/07/03 10:11:28;;;;;;;14.55;6.80;;;;;;;;;;3581155;40;20043;-62
2021/07/03 10:14:01;;;;;;;9.73;6.80;;;;;;;;;;3582576;40;20360;-61
2021/07/03 10:16:27;;;;;;;6.78;5.80;;;;;;;;;;3581902;40;20036;-61
2021/07/03 10:19:14;;;;;;;8.55;6.45;;;;;;;;;;3581684;40;20072;-61
2021/07/03 10:21:42;;;;;;;7.53;6.03;;;;;;;;;;3582245;40;20343;-62
2021/07/03 10:24:20;;;;;;;6.53;5.50;;;;;;;;;;3581562;40;20041;-61
2021/07/03 10:26:46;;;;;;;8.73;5.60;;;;;;;;;;3583788;40;20057;-62
2021/07/03 10:29:39;;;;;;;7.78;5.45;;;;;;;;;;3584558;40;20417;-62
2021/07/03 10:32:05;;;;;;;8.07;5.30;;;;;;;;;;3583560;40;20048;-62
2021/07/03 10:34:33;;;;;;;11.45;6.03;;;;;;;;;;3584576;40;20044;-62
2021/07/03 10:37:00;;;;;;;7.75;5.45;;;;;;;;;;3582833;40;20072;-61
2021/07/03 10:39:30;;;;;;;9.52;7.50;;;;;;;;;;3584259;40;20330;-62
2021/07/03 10:41:55;;;;;;;7.10;5.65;;;;;;;;;;3583727;40;20049;-62
2021/07/03 10:44:21;;;;;;;7.70;6.10;;;;;;;;;;3581713;40;20040;-62
2021/07/03 10:46:48;;;;;;;7.05;5.47;;;;;;;;;;3583388;40;20025;-63
2021/07/03 10:49:30;;;;;;;6.60;5.47;;;;;;;;;;3584173;40;20146;-62
2021/07/03 10:51:56;;;;;;;6.28;5.53;;;;;;;;;;3582853;40;20044;-62
2021/07/03 10:54:24;;;;;;;8.05;5.47;;;;;;;;;;3572657;40;20048;-62
2021/07/03 10:57:00;;;;;;;8.15;6.07;;;;;;;;;;3582958;40;20039;-61
2021/07/03 10:59:27;;;;;;;7.72;6.05;;;;;;;;;;3583684;40;20048;-62
2021/07/03 11:02:04;;;;;;;9.50;6.20;;;;;;;;;;3581616;40;20033;-62
2021/07/03 11:04:29;;;;;;;7.30;6.05;;;;;;;;;;3582529;40;20368;-62
2021/07/03 11:06:55;;;;;;;6.03;5.13;;;;;;;;;;3580249;40;20029;-62
2021/07/03 11:09:29;;;;;;;7.22;5.63;;;;;;;;;;3581558;40;20370;-62
2021/07/03 11:11:57;;;;;;;10.43;4.95;;;;;;;;;;3583744;40;20173;-63
2021/07/03 11:14:24;;;;;;;5.95;4.78;;;;;;;;;;3583314;40;20114;-62
2021/07/03 11:16:54;;;;;;;7.47;5.45;;;;;;;;;;3582496;40;20048;-61
2021/07/03 11:19:21;;;;;;;5.93;5.28;;;;;;;;;;3582389;40;20091;-62
2021/07/03 11:21:47;;;;;;;7.40;5.72;;;;;;;;;;3582750;40;20043;-61
2021/07/03 11:24:12;;;;;;;7.05;5.45;;;;;;;;;;3584266;40;20373;-62
2021/07/03 11:26:38;;;;;;;7.82;5.30;;;;;;;;;;3582582;40;20048;-63
2021/07/03 11:29:03;;;;;;;7.78;5.40;;;;;;;;;;3581752;40;20040;-63
2021/07/03 11:31:29;;;;;;;6.35;4.88;;;;;;;;;;3581472;40;20028;-63
2021/07/03 11:33:55;;;;;;;5.72;4.78;;;;;;;;;;3582481;40;20032;-63
2021/07/03 11:36:20;;;;;;;6.28;4.68;;;;;;;;;;3582541;40;20037;-62
2021/07/03 11:38:57;;;;;;;7.50;4.78;;;;;;;;;;3581750;40;20028;-62
2021/07/03 11:41:24;;;;;;;8.45;4.60;;;;;;;;;;3582301;40;20043;-62
2021/07/03 11:44:04;;;;;;;6.30;4.78;;;;;;;;;;3582882;40;20032;-62
2021/07/03 11:46:30;;;;;;;;;;;;;;;;;;3584330;40;20028;-62
2021/07/03 11:48:55;;;;;;;5.72;4.45;;;;;;;;;;3572498;40;20026;-62
2021/07/03 11:51:21;;;;;;;8.77;5.10;;;;;;;;;;3581463;40;20077;-62
2021/07/03 11:53:51;;;;;;;6.20;4.55;;;;;;;;;;3581959;40;20043;-62
2021/07/03 11:56:16;;;;;;;5.13;4.00;;;;;;;;;;3583887;40;20042;-63
2021/07/03 11:58:43;;;;;;;6.90;4.38;;;;;;;;;;3582903;40;20040;-63
2021/07/03 12:01:14;;;;;;;5.22;4.10;;;;;;;;;;3583103;40;20615;-61
2021/07/03 12:03:43;;;;;;;9.75;7.20;;;;;;;;;;3581991;40;20039;-62
2021/07/03 12:06:09;;;;;;;7.93;6.73;;;;;;;;;;3583430;40;20051;-63
2021/07/03 12:08:46;;;;;;;6.47;5.15;;;;;;;;;;3581697;40;20277;-62
2021/07/03 12:11:16;;;;;;;9.52;5.60;;;;;;;;;;3581446;40;20121;-60
2021/07/03 12:13:46;;;;;;;5.45;4.63;;;;;;;;;;3584242;40;20061;-62
2021/07/03 12:16:13;;;;;;;6.57;5.15;;;;;;;;;;3580944;40;20043;-62
2021/07/03 12:18:42;;;;;;;5.85;4.68;;;;;;;;;;3581317;40;20034;-63
2021/07/03 12:21:15;;;;;;;5.82;4.68;;;;;;;;;;3580120;40;20048;-62
2021/07/03 12:23:47;;;;;;;6.07;4.45;;;;;;;;;;3580878;40;20080;-62
2021/07/03 12:26:14;;;;;;;6.15;4.60;;;;;;;;;;3581653;40;20040;-63
2021/07/03 12:29:00;;;;;;;5.60;4.60;;;;;;;;;;3582642;40;20041;-61
2021/07/03 12:31:41;;;;;;;5.75;4.35;;;;;;;;;;3576139;40;20468;-60
2021/07/03 12:34:22;;;;;;;7.32;4.30;;;;;;;;;;3581823;40;20036;-61
2021/07/03 12:36:50;;;;;;;6.20;5.03;;;;;;;;;;3582164;40;20048;-61
2021/07/03 12:39:24;;;;;;;6.95;4.70;;;;;;;;;;3581025;40;20073;-62
2021/07/03 12:42:01;;;;;;;5.18;4.40;;;;;;;;;;3582532;40;20084;-63
2021/07/03 12:44:41;;;;;;;6.45;4.50;;;;;;;;;;3575685;40;20044;-62
2021/07/03 12:47:09;;;;;;;8.25;4.88;;;;;;;;;;3582668;40;20060;-63
2021/07/03 12:49:39;;;;;;;7.18;5.65;;;;;;;;;;3582960;40;20032;-63
2021/07/03 12:52:06;;;;;;;7.85;5.25;;;;;;;;;;3573320;40;20045;-63
2021/07/03 12:54:32;;;;;;;7.25;4.60;;;;;;;;;;3583668;40;20078;-63
2021/07/03 12:56:58;;;;;;;6.68;4.65;;;;;;;;;;3583098;40;20044;-62
2021/07/03 12:59:38;;;;;;;4.88;4.38;;;;;;;;;;3582544;40;20069;-63
2021/07/03 13:02:14;;;;;;;5.72;4.85;;;;;;;;;;3582584;40;20053;-62
2021/07/03 13:04:47;;;;;;;5.65;4.35;;;;;;;;;;3583414;40;20047;-63
2021/07/03 13:07:17;;;;;;;9.18;4.85;;;;;;;;;;3581503;40;20377;-63
2021/07/03 13:09:44;;;;;;;5.88;4.30;;;;;;;;;;3581405;40;20079;-62
2021/07/03 13:12:10;;;;;;;6.88;5.55;;;;;;;;;;3581825;40;20407;-62
2021/07/03 13:14:35;;;;;;;7.38;5.63;;;;;;;;;;3583122;40;20375;-63
2021/07/03 13:17:01;;;;;;;17.88;16.08;;;;;;;;;;3583523;40;20022;-63
2021/07/03 13:19:26;;;;;;;8.60;5.15;;;;;;;;;;3582396;40;20618;-63
2021/07/03 13:21:52;;;;;;;8.35;6.32;;;;;;;;;;3583351;40;20047;-63
2021/07/03 13:24:17;;;;;;;5.30;4.60;;;;;;;;;;3582703;40;20057;-63
2021/07/03 13:26:43;;;;;;;9.75;4.93;;;;;;;;;;3584663;40;20036;-63
2021/07/03 13:29:09;;;;;;;5.60;4.50;;;;;;;;;;3583342;40;20049;-63
2021/07/03 13:31:34;;;;;;;5.47;4.47;;;;;;;;;;3583507;40;20028;-63
2021/07/03 13:34:00;;;;;;;5.38;4.55;;;;;;;;;;3582711;40;20025;-63
2021/07/03 13:36:26;;;;;;;6.10;4.93;;;;;;;;;;3574794;40;20333;-62
2021/07/03 13:38:51;;;;;;;7.00;5.13;;;;;;;;;;3582721;40;20044;-63
2021/07/03 13:41:17;;;;;;;6.13;4.32;;;;;;;;;;3583529;40;20047;-63
2021/07/03 13:43:42;;;;;;;5.75;4.40;;;;;;;;;;3574366;40;20029;-63
2021/07/03 13:46:09;;;;;;;5.40;4.45;;;;;;;;;;3583049;40;20375;-63
2021/07/03 13:48:35;;;;;;;7.85;4.30;;;;;;;;;;3582661;40;20048;-63
2021/07/03 13:51:00;;;;;;;8.60;4.53;;;;;;;;;;3581668;40;20452;-63
2021/07/03 13:53:26;;;;;;;6.00;4.50;;;;;;;;;;3576278;40;20043;-63
2021/07/03 13:55:51;;;;;;;19.33;13.48;;;;;;;;;;3580692;40;20092;-62
2021/07/03 13:58:17;;;;;;;8.90;7.97;;;;;;;;;;3582950;40;20071;-63
2021/07/03 14:00:42;;;;;;;8.88;7.38;;;;;;;;;;3583655;40;20379;-62
2021/07/03 14:03:08;;;;;;;15.35;13.80;;;;;;;;;;3582026;40;20593;-63
2021/07/03 14:05:33;;;;;;;6.35;4.88;;;;;;;;;;3582283;40;20194;-62
2021/07/03 14:07:59;;;;;;;5.80;4.05;;;;;;;;;;3585198;40;20037;-64
2021/07/03 14:10:24;;;;;;;6.80;4.82;;;;;;;;;;3581771;40;20048;-62
2021/07/03 14:12:50;;;;;;;8.98;4.95;;;;;;;;;;3581722;40;20045;-61
2021/07/03 14:15:15;;;;;;;7.28;4.57;;;;;;;;;;3584256;40;20280;-63
2021/07/03 14:17:41;;;;;;;7.13;4.80;;;;;;;;;;3583473;40;20048;-62
2021/07/03 14:20:08;;;;;;;5.05;4.40;;;;;;;;;;3573763;40;20044;-63
2021/07/03 14:22:34;;;;;;;4.47;4.03;;;;;;;;;;3576382;40;20033;-61
2021/07/03 14:25:00;;;;;;;5.40;4.57;;;;;;;;;;3582705;40;20040;-61
2021/07/03 14:27:28;;;;;;;5.53;4.53;;;;;;;;;;3582122;40;20044;-62
2021/07/03 14:29:53;;;;;;;6.20;4.18;;;;;;;;;;3582099;40;20346;-63